Time;durP1;ratioP1;P1;durP2;ratioP2;P2;SDS_P1;SDS_P2;PMS_P1;PMS_P2;Temp;Humidity;BMP_temperature;BMP_pressure;BME280_temperature;BME280_humidity;BME280_pressure;Samples;Min_cycle;Max_cycle;Signal;HPM_P1;HPM_P2
2021/05/12 00:02:05;;;;;;;7.13;2.45;;;12.00;99.90;;;;;;5020757;28;20040;-54
2021/05/12 00:05:11;;;;;;;7.15;2.42;;;12.10;99.90;;;;;;5027795;28;20396;-52
2021/05/12 00:08:15;;;;;;;6.10;3.05;;;12.00;99.90;;;;;;5030360;28;20044;-52
2021/05/12 00:11:19;;;;;;;6.82;2.75;;;12.00;99.90;;;;;;5031476;28;20048;-53
2021/05/12 00:14:23;;;;;;;10.55;3.03;;;12.10;99.90;;;;;;5030934;28;20408;-53
2021/05/12 00:17:29;;;;;;;7.28;3.28;;;12.10;99.90;;;;;;5032042;28;20049;-54
2021/05/12 00:20:33;;;;;;;8.88;3.05;;;12.10;99.90;;;;;;5012344;28;20053;-52
2021/05/12 00:24:20;;;;;;;11.80;3.13;;;12.20;99.90;;;;;;5013400;28;20045;-52
2021/05/12 00:27:06;;;;;;;14.88;3.05;;;12.20;99.90;;;;;;5022534;28;20061;-53
2021/05/12 00:30:15;;;;;;;9.07;3.55;;;12.10;99.90;;;;;;5027694;28;20554;-53
2021/05/12 00:33:20;;;;;;;6.80;3.95;;;12.10;99.90;;;;;;5011816;28;20388;-53
2021/05/12 00:36:25;;;;;;;10.73;3.30;;;11.60;99.90;;;;;;5010668;28;20049;-53
2021/05/12 00:39:30;;;;;;;9.02;3.40;;;11.60;99.90;;;;;;5022568;28;20044;-52
2021/05/12 00:42:34;;;;;;;5.47;2.78;;;11.60;99.90;;;;;;5031327;28;20064;-53
2021/05/12 00:45:38;;;;;;;5.88;2.63;;;11.70;99.90;;;;;;5030296;28;20048;-53
2021/05/12 00:48:42;;;;;;;14.07;3.53;;;11.60;99.90;;;;;;5031950;28;20518;-51
2021/05/12 00:51:46;;;;;;;7.20;3.10;;;11.60;99.90;;;;;;5030721;28;20037;-53
2021/05/12 00:54:53;;;;;;;5.55;2.53;;;11.50;99.90;;;;;;5030458;28;20064;-53
2021/05/12 00:57:57;;;;;;;8.30;3.22;;;11.50;99.90;;;;;;5010547;28;20527;-53
2021/05/12 01:01:02;;;;;;;11.65;3.08;;;11.50;99.90;;;;;;5014824;28;20049;-53
2021/05/12 01:04:09;;;;;;;13.15;3.58;;;11.40;99.90;;;;;;5030412;28;20121;-53
2021/05/12 01:07:14;;;;;;;8.45;3.00;;;11.30;99.90;;;;;;5030417;28;20546;-53
2021/05/12 01:10:19;;;;;;;12.82;4.15;;;11.30;99.90;;;;;;5019340;28;20511;-53
2021/05/12 01:13:27;;;;;;;13.40;4.55;;;11.30;99.90;;;;;;5010681;28;20048;-52
2021/05/12 01:16:31;;;;;;;7.85;3.25;;;11.20;99.90;;;;;;5010274;28;20052;-53
2021/05/12 01:19:35;;;;;;;7.68;2.72;;;11.30;99.90;;;;;;5009833;28;20040;-54
2021/05/12 01:22:41;;;;;;;10.63;3.17;;;11.30;99.90;;;;;;5010317;28;20405;-53
2021/05/12 01:25:49;;;;;;;6.75;2.58;;;11.30;99.90;;;;;;5016543;28;20048;-52
2021/05/12 01:28:55;;;;;;;11.38;3.03;;;11.40;99.90;;;;;;5015150;28;20519;-54
2021/05/12 01:32:05;;;;;;;8.10;2.75;;;11.50;99.90;;;;;;5027466;28;20045;-51
2021/05/12 01:35:11;;;;;;;13.43;3.33;;;11.50;99.90;;;;;;5009865;28;20041;-53
2021/05/12 01:38:15;;;;;;;7.25;3.25;;;11.50;99.90;;;;;;5010514;28;20048;-53
2021/05/12 01:41:23;;;;;;;13.43;2.70;;;11.40;99.90;;;;;;5019623;28;20060;-53
2021/05/12 01:44:27;;;;;;;11.35;3.72;;;11.20;99.90;;;;;;5029575;28;20052;-52
2021/05/12 01:47:31;;;;;;;7.25;3.10;;;11.00;99.90;;;;;;5029730;28;20554;-52
2021/05/12 01:50:36;;;;;;;12.65;3.55;;;11.00;99.90;;;;;;5030378;28;20403;-53
2021/05/12 01:53:42;;;;;;;12.68;3.20;;;11.20;99.90;;;;;;5019356;28;20041;-53
2021/05/12 01:56:46;;;;;;;8.13;2.65;;;11.30;99.90;;;;;;5010003;28;20053;-53
2021/05/12 01:59:50;;;;;;;6.80;2.50;;;11.30;99.90;;;;;;5011093;28;20044;-52
2021/05/12 02:02:54;;;;;;;7.32;2.33;;;11.50;99.90;;;;;;5028747;28;20436;-52
2021/05/12 02:05:59;;;;;;;4.03;1.90;;;11.70;99.90;;;;;;5029135;28;20219;-52
2021/05/12 02:09:06;;;;;;;4.40;2.30;;;11.70;99.90;;;;;;5029068;28;20192;-53
2021/05/12 02:12:11;;;;;;;3.83;2.63;;;11.60;99.90;;;;;;5030024;28;20044;-52
2021/05/12 02:15:17;;;;;;;6.20;2.60;;;11.40;99.90;;;;;;5029247;28;20462;-53
2021/05/12 02:18:21;;;;;;;8.65;3.25;;;11.40;99.90;;;;;;5029912;28;20052;-53
2021/05/12 02:21:25;;;;;;;12.95;3.92;;;11.40;99.90;;;;;;5029663;28;20519;-53
2021/05/12 02:24:29;;;;;;;6.07;3.50;;;11.10;99.90;;;;;;5028990;28;20048;-55
2021/05/12 02:27:33;;;;;;;6.97;3.05;;;11.20;99.90;;;;;;5028301;28;20447;-54
2021/05/12 02:30:38;;;;;;;14.10;4.07;;;11.30;99.90;;;;;;5029322;28;20041;-53
2021/05/12 02:33:42;;;;;;;5.65;3.25;;;11.30;99.90;;;;;;5012272;28;20464;-51
2021/05/12 02:36:46;;;;;;;7.22;2.90;;;11.40;99.90;;;;;;5010198;28;20507;-53
2021/05/12 02:39:52;;;;;;;10.80;3.50;;;11.40;99.90;;;;;;5009871;28;20052;-53
2021/05/12 02:42:57;;;;;;;6.07;3.63;;;11.10;99.90;;;;;;5009423;28;20052;-54
2021/05/12 02:46:02;;;;;;;23.05;5.25;;;11.20;99.90;;;;;;5008401;28;20037;-54
2021/05/12 02:49:06;;;;;;;11.38;4.53;;;11.10;99.90;;;;;;5009777;28;20049;-53
2021/05/12 02:52:10;;;;;;;16.00;4.47;;;11.10;99.90;;;;;;5008882;28;20048;-53
2021/05/12 02:55:14;;;;;;;12.75;4.45;;;11.00;99.90;;;;;;5008741;28;20586;-52
2021/05/12 02:58:18;;;;;;;9.75;4.40;;;10.90;99.90;;;;;;5009652;28;20049;-53
2021/05/12 03:01:23;;;;;;;10.60;4.55;;;10.90;99.90;;;;;;5014724;28;20048;-53
2021/05/12 03:04:27;;;;;;;7.45;4.55;;;11.00;99.90;;;;;;5028252;28;20044;-54
2021/05/12 03:07:30;;;;;;;6.97;4.43;;;10.80;99.90;;;;;;5029227;28;20069;-54
2021/05/12 03:10:35;;;;;;;7.80;3.80;;;10.90;99.90;;;;;;5014186;28;20037;-53
2021/05/12 03:13:40;;;;;;;8.93;3.80;;;10.90;99.90;;;;;;5008579;28;20045;-53
2021/05/12 03:16:44;;;;;;;9.02;3.38;;;11.00;99.90;;;;;;5009233;28;20242;-53
2021/05/12 03:19:48;;;;;;;8.73;3.55;;;11.00;99.90;;;;;;5009170;28;20049;-53
2021/05/12 03:22:53;;;;;;;5.47;3.35;;;11.00;99.90;;;;;;5022936;28;20053;-53
2021/05/12 03:25:57;;;;;;;5.13;3.28;;;11.00;99.90;;;;;;5028558;28;20053;-53
2021/05/12 03:29:02;;;;;;;9.38;4.07;;;11.00;99.90;;;;;;5029097;28;20041;-53
2021/05/12 03:32:07;;;;;;;6.93;3.70;;;11.00;99.90;;;;;;5022473;28;20036;-53
2021/05/12 03:35:12;;;;;;;5.22;3.08;;;11.10;99.90;;;;;;5009036;28;20053;-53
2021/05/12 03:38:16;;;;;;;4.75;3.13;;;11.20;99.90;;;;;;5029414;28;20044;-52
2021/05/12 03:41:20;;;;;;;6.82;3.78;;;11.30;99.90;;;;;;5027803;28;20053;-53
2021/05/12 03:44:24;;;;;;;6.40;2.88;;;11.40;99.90;;;;;;5031817;28;20056;-53
2021/05/12 03:47:28;;;;;;;10.70;3.55;;;11.20;99.90;;;;;;5033473;28;20415;-53
2021/05/12 03:50:32;;;;;;;32.22;5.53;;;11.10;99.90;;;;;;5032144;28;20040;-53
2021/05/12 03:53:36;;;;;;;9.70;4.10;;;10.70;99.90;;;;;;5022315;28;20075;-53
2021/05/12 03:56:40;;;;;;;32.97;6.32;;;10.80;99.90;;;;;;5012398;28;20049;-52
2021/05/12 03:59:45;;;;;;;7.63;5.28;;;10.80;99.90;;;;;;5011991;28;20052;-53
2021/05/12 04:02:49;;;;;;;10.40;4.65;;;10.70;99.90;;;;;;5030168;28;20044;-52
2021/05/12 04:05:53;;;;;;;6.47;3.95;;;10.80;99.90;;;;;;5033074;28;20044;-53
2021/05/12 04:08:57;;;;;;;8.90;4.28;;;10.80;99.90;;;;;;5031890;28;20526;-53
2021/05/12 04:12:01;;;;;;;11.05;3.80;;;10.90;99.90;;;;;;5031508;28;20053;-53
2021/05/12 04:15:08;;;;;;;9.00;4.20;;;11.00;99.90;;;;;;5031784;28;20084;-52
2021/05/12 04:18:12;;;;;;;10.90;3.35;;;11.00;99.90;;;;;;5032355;28;20056;-52
2021/05/12 04:21:16;;;;;;;13.90;3.10;;;11.10;99.90;;;;;;5031287;28;20056;-52
2021/05/12 04:24:20;;;;;;;9.30;2.58;;;11.10;99.90;;;;;;5031898;28;20088;-52
2021/05/12 04:27:25;;;;;;;13.32;3.15;;;11.10;99.90;;;;;;5032484;28;20045;-55
2021/05/12 04:30:31;;;;;;;9.15;2.15;;;11.20;99.90;;;;;;5013764;28;20053;-52
2021/05/12 04:33:35;;;;;;;10.73;2.05;;;11.40;99.90;;;;;;5027133;28;20048;-53
2021/05/12 04:36:40;;;;;;;7.68;1.90;;;11.60;99.90;;;;;;5032120;28;20055;-54
2021/05/12 04:39:43;;;;;;;6.10;1.65;;;11.70;99.90;;;;;;5030908;28;20048;-53
2021/05/12 04:42:47;;;;;;;9.18;1.92;;;11.90;99.90;;;;;;5030648;28;20531;-52
2021/05/12 04:45:52;;;;;;;9.20;2.20;;;11.80;99.90;;;;;;5031641;28;20044;-55
2021/05/12 04:48:56;;;;;;;7.75;2.13;;;11.80;99.90;;;;;;5030109;28;20048;-53
2021/05/12 04:52:00;;;;;;;3.70;2.42;;;11.70;99.90;;;;;;5030271;28;20044;-54
2021/05/12 04:55:05;;;;;;;7.97;2.20;;;11.70;99.90;;;;;;5025021;28;20256;-56
2021/05/12 04:58:09;;;;;;;5.72;1.73;;;11.80;99.90;;;;;;5009251;28;20041;-53
2021/05/12 05:01:14;;;;;;;6.20;2.40;;;11.90;99.90;;;;;;5008242;28;20037;-53
2021/05/12 05:04:18;;;;;;;6.78;1.60;;;12.10;99.90;;;;;;5009320;28;20049;-53
2021/05/12 05:07:22;;;;;;;7.18;1.63;;;12.20;99.90;;;;;;5010143;28;20032;-55
2021/05/12 05:10:26;;;;;;;7.43;1.65;;;12.20;99.90;;;;;;5006662;28;20049;-53
2021/05/12 05:13:30;;;;;;;3.75;1.30;;;12.30;99.90;;;;;;5011380;28;20065;-53
2021/05/12 05:16:34;;;;;;;7.00;1.40;;;12.30;99.90;;;;;;5010949;28;20040;-59
2021/05/12 05:19:39;;;;;;;6.38;1.55;;;12.40;99.90;;;;;;5019064;28;20048;-57
2021/05/12 05:22:43;;;;;;;11.35;1.60;;;12.50;99.90;;;;;;4996222;28;20044;-53
2021/05/12 05:25:47;;;;;;;9.43;2.40;;;12.50;99.90;;;;;;5010377;28;20045;-54
2021/05/12 05:28:51;;;;;;;3.85;1.13;;;12.60;99.90;;;;;;5009846;28;20411;-56
2021/05/12 05:31:56;;;;;;;4.57;1.73;;;12.60;99.90;;;;;;5008849;28;20062;-55
2021/05/12 05:35:19;;;;;;;10.70;1.50;;;12.40;99.90;;;;;;5010025;28;20045;-55
2021/05/12 05:38:45;;;;;;;6.57;1.58;;;12.50;99.90;;;;;;4967119;28;20057;-55
2021/05/12 05:42:12;;;;;;;6.90;1.48;;;12.70;99.90;;;;;;4967773;28;20413;-54
2021/05/12 05:45:36;;;;;;;8.82;1.80;;;12.60;99.90;;;;;;4988637;28;20057;-56
2021/05/12 05:49:00;;;;;;;7.63;2.58;;;12.60;99.90;;;;;;4991189;28;20048;-54
2021/05/12 05:52:22;;;;;;;12.07;2.13;;;12.50;99.90;;;;;;4999462;28;20056;-53
2021/05/12 05:55:46;;;;;;;10.07;1.50;;;12.40;99.90;;;;;;4998622;28;20072;-52
2021/05/12 05:59:09;;;;;;;8.32;2.47;;;12.50;99.90;;;;;;4999810;28;20676;-53
2021/05/12 06:02:33;;;;;;;11.77;2.25;;;12.40;99.90;;;;;;5006576;28;20041;-54
2021/05/12 06:05:56;;;;;;;12.45;1.92;;;12.40;99.90;;;;;;5007027;28;20044;-53
2021/05/12 06:09:21;;;;;;;6.43;2.28;;;12.60;99.90;;;;;;5007971;28;20037;-55
2021/05/12 06:12:43;;;;;;;9.43;1.98;;;12.80;99.90;;;;;;5006229;28;20045;-55
2021/05/12 06:16:10;;;;;;;14.57;1.90;;;13.10;99.90;;;;;;4985165;28;20045;-53
2021/05/12 06:19:33;;;;;;;11.52;2.00;;;13.20;99.90;;;;;;5008746;28;20044;-52
2021/05/12 06:23:03;;;;;;;13.05;2.63;;;13.30;99.90;;;;;;5007607;28;20044;-53
2021/05/12 06:26:26;;;;;;;11.30;2.90;;;13.30;99.90;;;;;;5006523;28;20053;-54
2021/05/12 06:29:49;;;;;;;16.67;3.30;;;13.40;99.90;;;;;;5001903;28;20049;-54
2021/05/12 06:33:12;;;;;;;14.63;2.25;;;13.50;99.90;;;;;;5018721;28;20052;-54
2021/05/12 06:36:48;;;;;;;8.32;2.83;;;13.60;99.90;;;;;;4991729;28;20041;-53
2021/05/12 06:40:11;;;;;;;8.43;1.58;;;13.70;99.90;;;;;;4999649;28;20153;-55
2021/05/12 06:43:16;;;;;;;14.18;2.08;;;14.10;99.90;;;;;;5009200;28;20110;-53
2021/05/12 06:46:20;;;;;;;13.60;2.47;;;14.30;99.90;;;;;;5000054;28;20041;-54
2021/05/12 06:49:24;;;;;;;11.55;1.80;;;14.30;99.90;;;;;;5007615;28;20045;-54
2021/05/12 06:52:33;;;;;;;7.22;1.60;;;14.30;99.90;;;;;;5006271;28;20037;-53
2021/05/12 06:55:38;;;;;;;10.00;1.98;;;14.40;99.90;;;;;;5005172;28;20412;-53
2021/05/12 06:58:42;;;;;;;7.22;2.05;;;14.60;99.90;;;;;;5008093;28;20052;-54
2021/05/12 07:01:47;;;;;;;8.25;1.70;;;14.50;99.90;;;;;;5017782;28;20048;-53
2021/05/12 07:04:51;;;;;;;10.20;1.95;;;14.70;99.90;;;;;;4998222;28;20041;-53
2021/05/12 07:07:55;;;;;;;6.47;1.67;;;14.60;99.90;;;;;;5006835;28;20041;-53
2021/05/12 07:10:59;;;;;;;12.10;1.80;;;14.40;99.90;;;;;;5006394;28;20040;-53
2021/05/12 07:14:06;;;;;;;13.68;2.22;;;14.40;99.90;;;;;;5009342;28;20041;-53
2021/05/12 07:17:11;;;;;;;10.40;1.70;;;14.20;99.90;;;;;;5002341;28;20411;-56
2021/05/12 07:20:16;;;;;;;13.75;1.75;;;14.10;99.90;;;;;;5007883;28;20045;-53
2021/05/12 07:23:22;;;;;;;10.88;2.05;;;14.00;99.90;;;;;;4996041;28;20542;-53
2021/05/12 07:26:26;;;;;;;13.02;1.98;;;13.90;99.90;;;;;;5007803;28;20096;-54
2021/05/12 07:29:30;;;;;;;12.27;2.42;;;14.00;99.90;;;;;;5006193;28;20417;-53
2021/05/12 07:32:34;;;;;;;12.15;1.80;;;14.00;99.90;;;;;;5007060;28;20053;-53
2021/05/12 07:35:39;;;;;;;7.30;1.48;;;14.10;99.90;;;;;;5003854;28;20497;-53
2021/05/12 07:38:43;;;;;;;11.45;2.13;;;14.00;99.90;;;;;;5006984;28;20049;-54
2021/05/12 07:41:50;;;;;;;9.77;2.00;;;13.90;99.90;;;;;;4994539;28;20045;-53
2021/05/12 07:44:55;;;;;;;11.20;3.28;;;13.80;99.90;;;;;;5009692;28;20412;-55
2021/05/12 07:47:59;;;;;;;10.43;2.30;;;13.80;99.90;;;;;;5008690;28;20037;-53
2021/05/12 07:51:03;;;;;;;9.20;1.83;;;13.70;99.90;;;;;;5007655;28;20044;-53
2021/05/12 07:54:08;;;;;;;16.25;2.50;;;13.60;99.90;;;;;;5008518;28;20092;-53
2021/05/12 07:57:14;;;;;;;11.20;2.00;;;13.50;99.90;;;;;;5004420;28;20512;-53
2021/05/12 08:00:19;;;;;;;15.15;2.25;;;13.50;99.90;;;;;;5003663;28;20046;-54
2021/05/12 08:03:23;;;;;;;11.10;2.13;;;13.50;99.90;;;;;;5006143;28;20401;-55
2021/05/12 08:06:27;;;;;;;19.40;2.85;;;13.70;99.90;;;;;;5008503;28;20048;-53
2021/05/12 08:09:31;;;;;;;11.30;2.00;;;13.50;99.90;;;;;;5000495;28;20261;-53
2021/05/12 08:12:35;;;;;;;19.17;2.40;;;13.30;99.90;;;;;;5005667;28;20367;-53
2021/05/12 08:15:39;;;;;;;17.98;2.30;;;13.30;99.90;;;;;;5006355;28;20404;-54
2021/05/12 08:18:43;;;;;;;15.57;1.95;;;13.30;99.90;;;;;;5007128;28;20053;-55
2021/05/12 08:21:51;;;;;;;12.85;2.47;;;13.30;99.90;;;;;;5006928;28;20049;-54
2021/05/12 08:24:55;;;;;;;13.20;2.25;;;13.30;99.90;;;;;;5007339;28;20519;-53
2021/05/12 08:27:59;;;;;;;10.80;2.22;;;13.30;99.90;;;;;;5004728;28;20069;-52
2021/05/12 08:31:04;;;;;;;15.43;2.47;;;13.30;99.90;;;;;;5007998;28;20049;-54
2021/05/12 08:34:08;;;;;;;14.30;2.88;;;13.30;99.90;;;;;;5012443;28;20049;-52
2021/05/12 08:37:12;;;;;;;12.38;2.78;;;13.40;99.90;;;;;;5010279;28;20379;-53
2021/05/12 08:40:19;;;;;;;10.10;2.08;;;13.50;99.90;;;;;;5010593;28;20029;-53
2021/05/12 08:43:27;;;;;;;13.13;2.50;;;13.40;99.90;;;;;;5011452;28;20037;-53
2021/05/12 08:46:32;;;;;;;15.02;2.75;;;13.30;99.90;;;;;;5009462;28;20045;-53
2021/05/12 08:49:37;;;;;;;12.27;2.20;;;13.40;99.90;;;;;;5009062;28;20065;-53
2021/05/12 08:52:42;;;;;;;13.43;2.05;;;13.40;99.90;;;;;;5009346;28;20033;-51
2021/05/12 08:55:47;;;;;;;18.92;2.70;;;13.50;99.90;;;;;;5009247;28;20036;-55
2021/05/12 08:58:51;;;;;;;19.45;3.85;;;13.20;99.90;;;;;;5011284;28;20040;-54
2021/05/12 09:01:56;;;;;;;16.20;2.78;;;13.20;99.90;;;;;;5014804;28;20073;-53
2021/05/12 09:05:00;;;;;;;15.98;2.92;;;13.30;99.90;;;;;;5011560;28;20053;-53
2021/05/12 09:08:04;;;;;;;15.18;2.22;;;13.30;99.90;;;;;;5007428;28;20053;-55
2021/05/12 09:11:09;;;;;;;14.57;3.00;;;13.30;99.90;;;;;;5008713;28;20041;-53
2021/05/12 09:14:36;;;;;;;10.80;1.90;;;13.20;99.90;;;;;;5010757;28;20041;-54
2021/05/12 09:17:41;;;;;;;14.27;2.85;;;13.10;99.90;;;;;;5008779;28;20040;-53
2021/05/12 09:20:46;;;;;;;13.50;2.72;;;13.10;99.90;;;;;;5014712;28;20404;-53
2021/05/12 09:23:51;;;;;;;18.70;2.85;;;13.10;99.90;;;;;;5023225;28;20037;-53
2021/05/12 09:27:00;;;;;;;18.77;2.65;;;13.10;99.90;;;;;;5009188;28;20049;-53
2021/05/12 09:30:04;;;;;;;19.65;2.80;;;13.30;99.90;;;;;;5036936;23;20052;-59
2021/05/12 09:33:17;;;;;;;15.73;2.85;;;13.20;99.90;;;;;;5046985;28;20047;-53
2021/05/12 09:36:28;;;;;;;10.70;2.20;;;13.50;99.90;;;;;;5046193;28;20056;-57
2021/05/12 09:39:32;;;;;;;16.63;2.83;;;13.50;99.90;;;;;;5045102;28;20395;-55
2021/05/12 09:42:38;;;;;;;19.05;2.97;;;13.60;99.90;;;;;;5046907;28;20514;-58
2021/05/12 09:45:42;;;;;;;16.10;2.88;;;13.70;99.90;;;;;;5044233;28;20032;-53
2021/05/12 09:49:12;;;;;;;22.73;2.83;;;14.00;99.90;;;;;;5029594;28;20044;-55
2021/05/12 09:52:27;;;;;;;19.35;3.25;;;14.20;99.90;;;;;;5037989;28;20036;-53
2021/05/12 09:55:45;;;;;;;12.88;2.40;;;14.40;99.90;;;;;;5045823;28;20047;-56
2021/05/12 09:58:55;;;;;;;19.90;2.88;;;14.60;99.90;;;;;;5043858;28;20052;-55
2021/05/12 10:02:03;;;;;;;17.13;3.15;;;14.50;99.90;;;;;;5047830;28;20541;-54
2021/05/12 10:05:08;;;;;;;19.73;3.40;;;14.90;99.90;;;;;;5049767;28;20059;-56
2021/05/12 10:08:20;;;;;;;17.02;3.38;;;14.80;99.90;;;;;;5049893;28;20415;-54
2021/05/12 10:11:24;;;;;;;10.85;2.90;;;15.00;99.90;;;;;;5048230;28;20518;-54
2021/05/12 10:14:29;;;;;;;14.13;2.70;;;15.20;99.90;;;;;;5048845;28;20071;-54
2021/05/12 10:17:35;;;;;;;18.63;3.30;;;15.20;99.90;;;;;;5040488;28;20786;-54
2021/05/12 10:20:52;;;;;;;19.13;3.03;;;15.20;99.90;;;;;;5029439;28;20068;-55
2021/05/12 10:23:56;;;;;;;18.67;3.55;;;15.10;99.90;;;;;;5044692;28;20049;-54
2021/05/12 10:27:27;;;;;;;15.57;2.83;;;15.20;99.90;;;;;;5029502;28;20400;-54
2021/05/12 10:30:32;;;;;;;18.20;2.40;;;15.20;99.90;;;;;;5029202;28;20040;-54
2021/05/12 10:33:51;;;;;;;15.18;2.65;;;15.30;99.90;;;;;;5046364;28;20048;-53
2021/05/12 10:37:28;;;;;;;15.98;2.88;;;15.40;99.90;;;;;;5048295;28;20040;-53
2021/05/12 10:40:40;;;;;;;15.02;2.35;;;15.40;99.90;;;;;;5048791;28;20134;-53
2021/05/12 10:43:48;;;;;;;18.30;3.60;;;15.40;99.90;;;;;;5049500;28;20043;-54
2021/05/12 10:47:18;;;;;;;20.58;3.28;;;15.50;99.90;;;;;;5048699;28;20044;-54
2021/05/12 10:50:48;;;;;;;20.92;3.22;;;15.90;99.90;;;;;;5047949;28;20048;-53
2021/05/12 10:53:54;;;;;;;15.55;2.90;;;16.00;99.90;;;;;;5049168;28;20510;-54
2021/05/12 10:56:59;;;;;;;20.60;3.10;;;16.20;99.90;;;;;;5049501;28;20036;-53
2021/05/12 11:00:04;;;;;;;15.52;2.83;;;16.30;99.90;;;;;;5046573;28;20067;-54
2021/05/12 11:03:09;;;;;;;15.52;2.50;;;16.30;99.90;;;;;;5048277;28;20501;-55
2021/05/12 11:06:13;;;;;;;17.38;2.65;;;16.30;99.90;;;;;;5039040;28;20044;-54
2021/05/12 11:09:41;;;;;;;17.15;2.55;;;16.30;99.90;;;;;;5037592;28;20051;-55
2021/05/12 11:12:51;;;;;;;29.67;4.88;;;16.40;99.90;;;;;;5031073;28;20044;-56
2021/05/12 11:15:58;;;;;;;11.45;2.50;;;16.50;99.90;;;;;;5048979;28;20518;-53
2021/05/12 11:19:03;;;;;;;11.85;2.83;;;16.80;99.90;;;;;;5006022;28;20052;-58
2021/05/12 11:25:48;;;;;;;14.65;2.55;;;19.30;99.90;;;;;;5016458;28;20517;-59
2021/05/12 11:29:04;;;;;;;12.48;2.85;;;18.60;99.90;;;;;;5020307;28;20052;-54
2021/05/12 11:32:09;;;;;;;16.17;3.05;;;18.30;99.90;;;;;;5021232;28;20053;-60
2021/05/12 11:35:15;;;;;;;17.63;2.90;;;18.30;99.90;;;;;;5027718;28;20040;-55
2021/05/12 11:38:19;;;;;;;13.35;2.47;;;18.30;99.90;;;;;;5013974;28;20044;-56
2021/05/12 11:41:24;;;;;;;13.30;2.15;;;18.30;99.90;;;;;;5022154;28;20040;-54
2021/05/12 11:44:29;;;;;;;11.82;2.40;;;18.20;99.90;;;;;;5026405;28;20052;-58
2021/05/12 11:47:35;;;;;;;18.58;2.50;;;18.00;99.90;;;;;;5021756;28;20751;-57
2021/05/12 11:50:48;;;;;;;12.50;2.88;;;17.80;99.90;;;;;;5031593;28;20518;-58
2021/05/12 11:53:53;;;;;;;8.63;2.35;;;17.60;99.90;;;;;;5010643;28;20443;-60
2021/05/12 11:57:00;;;;;;;12.57;1.92;;;17.40;99.90;;;;;;5023522;28;20052;-55
2021/05/12 12:00:08;;;;;;;16.75;2.03;;;17.00;99.90;;;;;;5023451;28;20048;-55
2021/05/12 12:03:26;;;;;;;11.93;1.83;;;17.00;99.90;;;;;;5024046;28;20056;-53
2021/05/12 12:06:37;;;;;;;8.05;1.92;;;17.40;99.90;;;;;;5026544;28;20043;-53
2021/05/12 12:09:41;;;;;;;6.75;1.42;;;18.10;99.90;;;;;;5028758;28;20435;-59
2021/05/12 12:12:59;;;;;;;9.88;1.40;;;18.60;99.90;;;;;;5019590;28;20040;-58
2021/05/12 12:16:04;;;;;;;5.93;1.33;;;18.50;99.90;;;;;;5011475;28;20056;-58
2021/05/12 12:19:18;;;;;;;10.73;2.47;;;18.50;99.90;;;;;;5029459;28;20044;-57
2021/05/12 12:22:23;;;;;;;15.40;1.80;;;18.60;99.90;;;;;;5022534;28;20049;-55
2021/05/12 12:26:07;;;;;;;11.38;1.83;;;19.00;99.90;;;;;;5017837;28;20064;-58
2021/05/12 12:29:05;;;;;;;8.10;1.40;;;18.20;99.90;;;;;;5023226;28;21280;-54
2021/05/12 12:32:09;;;;;;;8.90;1.88;;;18.30;99.90;;;;;;5050413;28;20519;-57
2021/05/12 12:35:13;;;;;;;12.43;1.92;;;18.60;99.90;;;;;;5033998;28;20040;-58
2021/05/12 12:38:17;;;;;;;16.65;2.33;;;19.10;99.90;;;;;;5037351;28;20117;-58
2021/05/12 12:41:23;;;;;;;6.97;1.80;;;20.00;99.90;;;;;;5032707;28;20040;-57
2021/05/12 12:44:38;;;;;;;7.85;1.40;;;20.80;99.90;;;;;;5049062;28;20076;-55
2021/05/12 12:47:54;;;;;;;14.23;2.38;;;20.80;99.90;;;;;;5032538;28;20052;-57
2021/05/12 12:50:59;;;;;;;14.60;2.38;;;20.90;99.90;;;;;;5030419;28;20064;-56
2021/05/12 12:54:04;;;;;;;12.18;2.30;;;21.70;99.90;;;;;;5031824;28;20400;-54
2021/05/12 12:57:09;;;;;;;15.45;3.38;;;19.40;99.90;;;;;;5047353;28;20047;-54
2021/05/12 13:00:23;;;;;;;13.10;2.35;;;20.00;99.90;;;;;;5049941;28;20060;-54
2021/05/12 13:03:29;;;;;;;10.23;2.40;;;21.70;99.90;;;;;;5031748;28;20049;-55
2021/05/12 13:06:34;;;;;;;15.23;2.63;;;21.70;99.90;;;;;;5031070;28;20056;-57
2021/05/12 13:09:38;;;;;;;22.15;3.40;;;20.90;99.90;;;;;;5037803;28;20036;-56
2021/05/12 13:12:42;;;;;;;12.05;3.30;;;21.10;99.90;;;;;;5048647;28;20043;-56
2021/05/12 13:15:47;;;;;;;17.85;3.15;;;18.90;99.90;;;;;;5031185;28;20045;-54
2021/05/12 13:19:09;;;;;;;16.63;2.60;;;18.30;99.90;;;;;;5045904;28;20040;-54
2021/05/12 13:22:26;;;;;;;22.77;3.40;;;18.60;99.90;;;;;;5049793;28;20059;-56
2021/05/12 13:25:32;;;;;;;11.77;2.22;;;19.90;99.90;;;;;;5050744;28;20400;-54
2021/05/12 13:28:36;;;;;;;15.15;2.83;;;19.60;99.90;;;;;;5050419;28;20048;-54
2021/05/12 13:31:42;;;;;;;17.80;2.50;;;20.60;99.90;;;;;;5047127;28;20514;-54
2021/05/12 13:34:46;;;;;;;14.90;2.33;;;20.70;99.90;;;;;;5030916;28;20230;-53
2021/05/12 13:37:52;;;;;;;16.27;2.40;;;19.60;99.90;;;;;;5050013;28;20396;-53
2021/05/12 13:40:56;;;;;;;8.90;2.58;;;19.20;99.90;;;;;;5049348;28;20044;-58
2021/05/12 13:44:01;;;;;;;16.33;2.47;;;19.20;99.90;;;;;;5050341;28;20047;-54
2021/05/12 13:47:06;;;;;;;14.73;2.58;;;19.60;99.90;;;;;;5050001;28;20044;-54
2021/05/12 13:50:13;;;;;;;14.68;2.53;;;20.70;99.90;;;;;;5049088;28;20055;-54
2021/05/12 13:53:28;;;;;;;15.55;2.70;;;20.40;99.90;;;;;;5045465;28;20040;-57
2021/05/12 13:56:59;;;;;;;10.45;2.30;;;20.70;99.90;;;;;;5030202;28;20041;-55
2021/05/12 14:00:10;;;;;;;16.20;2.42;;;20.80;99.90;;;;;;5029634;28;20052;-54
2021/05/12 14:03:17;;;;;;;14.70;2.55;;;20.30;99.90;;;;;;5029167;28;20060;-54
2021/05/12 14:06:28;;;;;;;14.95;2.85;;;19.90;99.90;;;;;;5029551;28;20044;-54
2021/05/12 14:09:41;;;;;;;15.15;2.78;;;19.10;99.90;;;;;;5029878;28;20056;-54
2021/05/12 14:12:50;;;;;;;13.15;3.13;;;18.30;99.90;;;;;;5045683;28;20036;-53
2021/05/12 14:19:05;;;;;;;15.63;2.72;;;17.90;99.90;;;;;;5050196;28;20065;-54
2021/05/12 14:22:09;;;;;;;12.30;2.28;;;18.00;99.90;;;;;;5048934;28;20056;-53
2021/05/12 14:25:15;;;;;;;12.35;2.67;;;18.00;99.90;;;;;;5048727;28;20048;-54
2021/05/12 14:28:37;;;;;;;17.90;2.42;;;17.90;99.90;;;;;;5050269;28;20055;-54
2021/05/12 14:31:42;;;;;;;12.38;2.75;;;18.00;99.90;;;;;;5048629;28;20044;-55
2021/05/12 14:34:46;;;;;;;18.98;3.13;;;18.90;99.90;;;;;;5048880;28;20051;-54
2021/05/12 14:37:52;;;;;;;18.20;2.28;;;19.70;99.90;;;;;;5049427;28;20040;-53
2021/05/12 14:40:56;;;;;;;12.70;2.80;;;19.80;99.90;;;;;;5049413;28;20048;-54
2021/05/12 14:44:01;;;;;;;26.60;3.15;;;19.40;99.90;;;;;;5048448;28;20060;-53
2021/05/12 14:47:05;;;;;;;17.17;3.13;;;18.10;99.90;;;;;;5049294;28;20051;-56
2021/05/12 14:50:11;;;;;;;19.75;3.22;;;17.30;99.90;;;;;;5049180;28;20514;-54
2021/05/12 14:53:19;;;;;;;17.52;2.75;;;17.70;99.90;;;;;;5048040;28;20395;-55
2021/05/12 14:56:46;;;;;;;19.38;2.80;;;17.80;99.90;;;;;;5048233;28;20403;-54
2021/05/12 15:00:15;;;;;;;22.27;3.30;;;18.20;99.90;;;;;;5048557;28;20518;-54
2021/05/12 15:09:25;;;;;;;16.90;2.80;;;18.90;99.90;;;;;;5029213;28;20403;-57
2021/05/12 15:12:29;;;;;;;18.90;2.97;;;18.90;99.90;;;;;;5029212;28;20069;-55
2021/05/12 15:15:33;;;;;;;10.82;2.65;;;18.50;99.90;;;;;;5028028;28;20056;-55
2021/05/12 15:18:38;;;;;;;12.38;2.80;;;18.30;99.90;;;;;;5028530;28;20048;-57
2021/05/12 15:21:43;;;;;;;20.00;3.10;;;18.00;99.90;;;;;;5028360;28;20068;-55
2021/05/12 15:24:47;;;;;;;22.73;3.80;;;17.40;99.90;;;;;;5027967;28;20045;-56
2021/05/12 15:27:55;;;;;;;14.50;2.65;;;18.10;99.90;;;;;;5028249;28;20052;-53
2021/05/12 15:31:01;;;;;;;20.30;3.22;;;18.50;99.90;;;;;;5020343;23;20057;-84
2021/05/12 15:34:05;;;;;;;20.00;2.78;;;18.20;99.90;;;;;;5010556;28;20117;-84
2021/05/12 15:37:09;;;;;;;12.63;2.60;;;18.20;99.90;;;;;;5009384;28;20049;-84
2021/05/12 15:40:13;;;;;;;18.73;3.60;;;18.20;99.90;;;;;;5014706;28;20045;-85
2021/05/12 15:43:18;;;;;;;19.67;3.10;;;18.10;99.90;;;;;;5013985;28;20045;-84
2021/05/12 15:46:23;;;;;;;13.35;2.75;;;18.00;99.90;;;;;;5012697;28;20033;-84
2021/05/12 15:49:28;;;;;;;16.20;3.13;;;17.30;99.90;;;;;;5014050;28;20045;-85
2021/05/12 15:52:32;;;;;;;11.68;2.33;;;17.20;99.90;;;;;;4996046;28;20428;-84
2021/05/12 15:55:37;;;;;;;12.10;2.35;;;17.60;99.90;;;;;;5013822;28;20056;-84
2021/05/12 15:58:42;;;;;;;18.05;3.47;;;17.90;99.90;;;;;;5013762;28;20037;-84
2021/05/12 16:01:46;;;;;;;15.15;3.03;;;18.20;99.90;;;;;;5004288;28;20053;-84
2021/05/12 16:04:52;;;;;;;13.60;2.30;;;18.40;99.90;;;;;;5013447;28;20424;-84
2021/05/12 16:07:56;;;;;;;17.77;2.63;;;17.30;99.90;;;;;;5013620;28;20045;-84
2021/05/12 16:11:00;;;;;;;15.68;3.00;;;17.50;99.90;;;;;;5013919;28;20052;-83
2021/05/12 16:14:05;;;;;;;13.65;2.40;;;18.10;99.90;;;;;;5013447;28;20053;-84
2021/05/12 16:17:11;;;;;;;15.25;2.50;;;18.40;99.90;;;;;;5012775;28;20411;-84
2021/05/12 16:20:16;;;;;;;15.15;2.83;;;18.80;99.90;;;;;;5014416;28;20530;-85
2021/05/12 16:23:20;;;;;;;12.20;3.05;;;19.20;99.90;;;;;;5010420;28;20530;-84